Roosevelt, Oklahoma
Current Conditions -  °F | °C
As of 4:14 AM on Saturday 22 Nov 2014 (Local Time) from KHBR Reporting Station
Haze Haze  
Wind Chill: 52°   Ceiling: 200
Heat Index: 52°   Visibility: 2.5mi
Dew Point: 50°   Wind: 0mph
Humidity: 93%   Direction: NA
Pressure: 29.97"   Gusts: NA
Location:  34.85°N, 99.02°W
Report Text: KHBR 221014Z AUTO 00000KT 2 1/2SM BR OVC002 11/10 A2997 RMK AO2 LTG DSNT SE T01110100
Loading
Personal Weather Stations






























Interactive Weather Map New forecast layout! Learn more

10-Day Weather Forecast

Advertisements
Track Severe Weather on mobile